sensor_id;sensor_type;location;lat;lon;timestamp;temperature;humidity
68556;HTU21D;55544;51.032;5.866;2024-01-06T00:00:37;8.28;91.67
68556;HTU21D;55544;51.032;5.866;2024-01-06T00:03:03;8.28;91.76
68556;HTU21D;55544;51.032;5.866;2024-01-06T00:05:28;8.29;91.60
68556;HTU21D;55544;51.032;5.866;2024-01-06T00:07:54;8.28;91.84
68556;HTU21D;55544;51.032;5.866;2024-01-06T00:10:20;8.30;91.82
68556;HTU21D;55544;51.032;5.866;2024-01-06T00:12:45;8.31;91.99
68556;HTU21D;55544;51.032;5.866;2024-01-06T00:15:11;8.34;91.80
68556;HTU21D;55544;51.032;5.866;2024-01-06T00:17:37;8.35;91.69
68556;HTU21D;55544;51.032;5.866;2024-01-06T00:20:03;8.37;91.63
68556;HTU21D;55544;51.032;5.866;2024-01-06T00:22:30;8.37;91.78
68556;HTU21D;55544;51.032;5.866;2024-01-06T00:24:55;8.36;91.90
68556;HTU21D;55544;51.032;5.866;2024-01-06T00:27:21;8.38;91.60
68556;HTU21D;55544;51.032;5.866;2024-01-06T00:29:46;8.42;92.01
68556;HTU21D;55544;51.032;5.866;2024-01-06T00:32:13;8.43;91.74
68556;HTU21D;55544;51.032;5.866;2024-01-06T00:34:38;8.47;91.87
68556;HTU21D;55544;51.032;5.866;2024-01-06T00:37:04;8.46;91.89
68556;HTU21D;55544;51.032;5.866;2024-01-06T00:39:30;8.49;91.60
68556;HTU21D;55544;51.032;5.866;2024-01-06T00:41:56;8.48;91.99
68556;HTU21D;55544;51.032;5.866;2024-01-06T00:44:21;8.49;92.06
68556;HTU21D;55544;51.032;5.866;2024-01-06T00:46:47;8.53;91.71
68556;HTU21D;55544;51.032;5.866;2024-01-06T00:49:13;8.56;91.84
68556;HTU21D;55544;51.032;5.866;2024-01-06T00:51:38;8.56;91.73
68556;HTU21D;55544;51.032;5.866;2024-01-06T00:54:04;8.56;91.86
68556;HTU21D;55544;51.032;5.866;2024-01-06T00:56:30;8.58;91.92
68556;HTU21D;55544;51.032;5.866;2024-01-06T00:58:55;8.59;91.89
68556;HTU21D;55544;51.032;5.866;2024-01-06T01:01:21;8.61;91.56
68556;HTU21D;55544;51.032;5.866;2024-01-06T01:03:47;8.59;91.61
68556;HTU21D;55544;51.032;5.866;2024-01-06T01:06:13;8.58;91.75
68556;HTU21D;55544;51.032;5.866;2024-01-06T01:08:38;8.59;91.41
68556;HTU21D;55544;51.032;5.866;2024-01-06T01:11:04;8.61;91.55
68556;HTU21D;55544;51.032;5.866;2024-01-06T01:13:30;8.59;91.50
68556;HTU21D;55544;51.032;5.866;2024-01-06T01:15:56;8.63;91.37
68556;HTU21D;55544;51.032;5.866;2024-01-06T01:18:22;8.62;91.47
68556;HTU21D;55544;51.032;5.866;2024-01-06T01:20:47;8.63;91.47
68556;HTU21D;55544;51.032;5.866;2024-01-06T01:23:13;8.62;91.43
68556;HTU21D;55544;51.032;5.866;2024-01-06T01:25:39;8.65;91.25
68556;HTU21D;55544;51.032;5.866;2024-01-06T01:28:04;8.60;91.21
68556;HTU21D;55544;51.032;5.866;2024-01-06T01:30:30;8.60;91.22
68556;HTU21D;55544;51.032;5.866;2024-01-06T01:32:58;8.63;91.33
68556;HTU21D;55544;51.032;5.866;2024-01-06T01:35:24;8.66;91.29
68556;HTU21D;55544;51.032;5.866;2024-01-06T01:37:49;8.65;90.88
68556;HTU21D;55544;51.032;5.866;2024-01-06T01:40:15;8.68;90.81
68556;HTU21D;55544;51.032;5.866;2024-01-06T01:42:43;8.63;90.64
68556;HTU21D;55544;51.032;5.866;2024-01-06T01:45:09;8.64;90.75
68556;HTU21D;55544;51.032;5.866;2024-01-06T01:47:35;8.61;90.98
68556;HTU21D;55544;51.032;5.866;2024-01-06T01:50:03;8.63;90.73
68556;HTU21D;55544;51.032;5.866;2024-01-06T01:52:29;8.66;90.72
68556;HTU21D;55544;51.032;5.866;2024-01-06T01:54:55;8.72;90.78
68556;HTU21D;55544;51.032;5.866;2024-01-06T01:57:23;8.68;90.55
68556;HTU21D;55544;51.032;5.866;2024-01-06T01:59:52;8.72;90.40
68556;HTU21D;55544;51.032;5.866;2024-01-06T02:02:18;8.71;90.26
68556;HTU21D;55544;51.032;5.866;2024-01-06T02:04:45;8.72;90.06
68556;HTU21D;55544;51.032;5.866;2024-01-06T02:07:10;8.70;90.25
68556;HTU21D;55544;51.032;5.866;2024-01-06T02:09:36;8.71;90.15
68556;HTU21D;55544;51.032;5.866;2024-01-06T02:12:03;8.70;90.24
68556;HTU21D;55544;51.032;5.866;2024-01-06T02:14:28;8.70;90.78
68556;HTU21D;55544;51.032;5.866;2024-01-06T02:16:54;8.75;90.56
68556;HTU21D;55544;51.032;5.866;2024-01-06T02:19:20;8.75;90.52
68556;HTU21D;55544;51.032;5.866;2024-01-06T02:21:53;8.77;90.42
68556;HTU21D;55544;51.032;5.866;2024-01-06T02:24:20;8.73;90.69
68556;HTU21D;55544;51.032;5.866;2024-01-06T02:26:46;8.74;90.24
68556;HTU21D;55544;51.032;5.866;2024-01-06T02:29:11;8.73;90.14
68556;HTU21D;55544;51.032;5.866;2024-01-06T02:31:37;8.72;90.06
68556;HTU21D;55544;51.032;5.866;2024-01-06T02:34:03;8.70;89.98
68556;HTU21D;55544;51.032;5.866;2024-01-06T02:36:29;8.66;90.01
68556;HTU21D;55544;51.032;5.866;2024-01-06T02:38:54;8.64;89.85
68556;HTU21D;55544;51.032;5.866;2024-01-06T02:41:20;8.67;89.57
68556;HTU21D;55544;51.032;5.866;2024-01-06T02:43:46;8.68;89.25
68556;HTU21D;55544;51.032;5.866;2024-01-06T02:46:12;8.70;89.12
68556;HTU21D;55544;51.032;5.866;2024-01-06T02:48:38;8.70;88.82
68556;HTU21D;55544;51.032;5.866;2024-01-06T02:51:03;8.68;88.84
68556;HTU21D;55544;51.032;5.866;2024-01-06T02:53:29;8.66;88.72
68556;HTU21D;55544;51.032;5.866;2024-01-06T02:55:55;8.61;89.07
68556;HTU21D;55544;51.032;5.866;2024-01-06T02:58:21;8.61;88.69
68556;HTU21D;55544;51.032;5.866;2024-01-06T03:00:46;8.60;88.83
68556;HTU21D;55544;51.032;5.866;2024-01-06T03:03:12;8.57;88.84
68556;HTU21D;55544;51.032;5.866;2024-01-06T03:05:38;8.59;88.48
68556;HTU21D;55544;51.032;5.866;2024-01-06T03:08:04;8.53;88.61
68556;HTU21D;55544;51.032;5.866;2024-01-06T03:10:30;8.53;88.52
68556;HTU21D;55544;51.032;5.866;2024-01-06T03:12:55;8.52;88.27
68556;HTU21D;55544;51.032;5.866;2024-01-06T03:15:22;8.48;88.09
68556;HTU21D;55544;51.032;5.866;2024-01-06T03:17:47;8.47;88.25
68556;HTU21D;55544;51.032;5.866;2024-01-06T03:20:13;8.43;88.21
68556;HTU21D;55544;51.032;5.866;2024-01-06T03:22:39;8.44;87.88
68556;HTU21D;55544;51.032;5.866;2024-01-06T03:25:05;8.43;88.03
68556;HTU21D;55544;51.032;5.866;2024-01-06T03:27:31;8.37;87.94
68556;HTU21D;55544;51.032;5.866;2024-01-06T03:29:57;8.35;87.94
68556;HTU21D;55544;51.032;5.866;2024-01-06T03:32:23;8.35;87.57
68556;HTU21D;55544;51.032;5.866;2024-01-06T03:34:50;8.36;87.83
68556;HTU21D;55544;51.032;5.866;2024-01-06T03:37:15;8.41;87.61
68556;HTU21D;55544;51.032;5.866;2024-01-06T03:39:41;8.42;87.47
68556;HTU21D;55544;51.032;5.866;2024-01-06T03:42:07;8.42;86.94
68556;HTU21D;55544;51.032;5.866;2024-01-06T03:44:32;8.45;86.77
68556;HTU21D;55544;51.032;5.866;2024-01-06T03:46:59;8.49;86.51
68556;HTU21D;55544;51.032;5.866;2024-01-06T03:49:25;8.47;86.46
68556;HTU21D;55544;51.032;5.866;2024-01-06T03:51:51;8.47;86.51
68556;HTU21D;55544;51.032;5.866;2024-01-06T03:54:17;8.50;86.25
68556;HTU21D;55544;51.032;5.866;2024-01-06T03:56:43;8.52;86.17
68556;HTU21D;55544;51.032;5.866;2024-01-06T03:59:09;8.49;85.71
68556;HTU21D;55544;51.032;5.866;2024-01-06T04:01:35;8.44;85.73
68556;HTU21D;55544;51.032;5.866;2024-01-06T04:04:05;8.34;85.67
68556;HTU21D;55544;51.032;5.866;2024-01-06T04:06:31;8.33;86.09
68556;HTU21D;55544;51.032;5.866;2024-01-06T04:09:00;8.32;85.96
68556;HTU21D;55544;51.032;5.866;2024-01-06T04:11:27;8.31;85.84
68556;HTU21D;55544;51.032;5.866;2024-01-06T04:13:52;8.30;86.03
68556;HTU21D;55544;51.032;5.866;2024-01-06T04:16:19;8.28;85.58
68556;HTU21D;55544;51.032;5.866;2024-01-06T04:18:45;8.24;85.83
68556;HTU21D;55544;51.032;5.866;2024-01-06T04:21:11;8.26;85.57
68556;HTU21D;55544;51.032;5.866;2024-01-06T04:23:37;8.23;85.51
68556;HTU21D;55544;51.032;5.866;2024-01-06T04:26:03;8.22;85.49
68556;HTU21D;55544;51.032;5.866;2024-01-06T04:28:30;8.15;85.63
68556;HTU21D;55544;51.032;5.866;2024-01-06T04:30:56;8.12;85.68
68556;HTU21D;55544;51.032;5.866;2024-01-06T04:33:21;8.09;85.61
68556;HTU21D;55544;51.032;5.866;2024-01-06T04:35:47;8.13;85.63
68556;HTU21D;55544;51.032;5.866;2024-01-06T04:38:13;8.12;85.66
68556;HTU21D;55544;51.032;5.866;2024-01-06T04:40:38;8.13;85.27
68556;HTU21D;55544;51.032;5.866;2024-01-06T04:43:04;8.08;85.21
68556;HTU21D;55544;51.032;5.866;2024-01-06T04:45:30;8.11;85.40
68556;HTU21D;55544;51.032;5.866;2024-01-06T04:47:56;8.07;85.20
68556;HTU21D;55544;51.032;5.866;2024-01-06T04:50:21;8.06;85.38
68556;HTU21D;55544;51.032;5.866;2024-01-06T04:52:48;8.01;85.26
68556;HTU21D;55544;51.032;5.866;2024-01-06T04:55:13;7.96;85.35
68556;HTU21D;55544;51.032;5.866;2024-01-06T04:57:39;7.94;85.04
68556;HTU21D;55544;51.032;5.866;2024-01-06T05:00:05;7.88;85.38
68556;HTU21D;55544;51.032;5.866;2024-01-06T05:02:31;7.88;85.48
68556;HTU21D;55544;51.032;5.866;2024-01-06T05:04:57;7.90;85.29
68556;HTU21D;55544;51.032;5.866;2024-01-06T05:07:23;7.87;85.31
68556;HTU21D;55544;51.032;5.866;2024-01-06T05:09:48;7.88;85.34
68556;HTU21D;55544;51.032;5.866;2024-01-06T05:12:14;7.79;85.00
68556;HTU21D;55544;51.032;5.866;2024-01-06T05:14:40;7.83;85.26
68556;HTU21D;55544;51.032;5.866;2024-01-06T05:17:05;7.75;85.47
68556;HTU21D;55544;51.032;5.866;2024-01-06T05:19:31;7.72;85.54
68556;HTU21D;55544;51.032;5.866;2024-01-06T05:21:57;7.68;85.53
68556;HTU21D;55544;51.032;5.866;2024-01-06T05:24:23;7.68;85.39
68556;HTU21D;55544;51.032;5.866;2024-01-06T05:26:49;7.63;85.42
68556;HTU21D;55544;51.032;5.866;2024-01-06T05:29:15;7.62;85.21
68556;HTU21D;55544;51.032;5.866;2024-01-06T05:31:40;7.60;85.19
68556;HTU21D;55544;51.032;5.866;2024-01-06T05:34:06;7.62;85.33
68556;HTU21D;55544;51.032;5.866;2024-01-06T05:36:32;7.67;84.81
68556;HTU21D;55544;51.032;5.866;2024-01-06T05:38:58;7.64;84.74
68556;HTU21D;55544;51.032;5.866;2024-01-06T05:41:26;7.67;84.62
68556;HTU21D;55544;51.032;5.866;2024-01-06T05:43:51;7.64;84.49
68556;HTU21D;55544;51.032;5.866;2024-01-06T05:46:24;7.53;84.71
68556;HTU21D;55544;51.032;5.866;2024-01-06T05:48:50;7.49;84.52
68556;HTU21D;55544;51.032;5.866;2024-01-06T05:51:16;7.46;84.74
68556;HTU21D;55544;51.032;5.866;2024-01-06T05:53:42;7.43;84.93
68556;HTU21D;55544;51.032;5.866;2024-01-06T05:56:08;7.40;84.87
68556;HTU21D;55544;51.032;5.866;2024-01-06T05:58:35;7.44;84.95
68556;HTU21D;55544;51.032;5.866;2024-01-06T06:01:00;7.46;84.87
68556;HTU21D;55544;51.032;5.866;2024-01-06T06:03:26;7.44;84.57
68556;HTU21D;55544;51.032;5.866;2024-01-06T06:05:52;7.38;84.58
68556;HTU21D;55544;51.032;5.866;2024-01-06T06:08:18;7.33;84.54
68556;HTU21D;55544;51.032;5.866;2024-01-06T06:10:44;7.30;84.51
68556;HTU21D;55544;51.032;5.866;2024-01-06T06:13:40;7.28;84.60
68556;HTU21D;55544;51.032;5.866;2024-01-06T06:16:08;7.23;84.18
68556;HTU21D;55544;51.032;5.866;2024-01-06T06:18:35;7.18;84.11
68556;HTU21D;55544;51.032;5.866;2024-01-06T06:21:01;7.17;84.24
68556;HTU21D;55544;51.032;5.866;2024-01-06T06:23:32;7.20;83.85
68556;HTU21D;55544;51.032;5.866;2024-01-06T06:25:58;7.20;83.71
68556;HTU21D;55544;51.032;5.866;2024-01-06T06:28:25;7.24;83.36
68556;HTU21D;55544;51.032;5.866;2024-01-06T06:30:51;7.17;83.18
68556;HTU21D;55544;51.032;5.866;2024-01-06T06:33:16;7.17;83.42
68556;HTU21D;55544;51.032;5.866;2024-01-06T06:35:42;7.18;83.21
68556;HTU21D;55544;51.032;5.866;2024-01-06T06:38:08;7.19;83.13
68556;HTU21D;55544;51.032;5.866;2024-01-06T06:40:34;7.23;83.23
68556;HTU21D;55544;51.032;5.866;2024-01-06T06:42:59;7.14;83.08
68556;HTU21D;55544;51.032;5.866;2024-01-06T06:45:25;7.08;82.88
68556;HTU21D;55544;51.032;5.866;2024-01-06T06:47:51;7.10;83.42
68556;HTU21D;55544;51.032;5.866;2024-01-06T06:50:17;7.07;83.39
68556;HTU21D;55544;51.032;5.866;2024-01-06T06:52:44;7.11;83.08
68556;HTU21D;55544;51.032;5.866;2024-01-06T06:55:09;7.11;82.78
68556;HTU21D;55544;51.032;5.866;2024-01-06T06:57:36;7.11;82.93
68556;HTU21D;55544;51.032;5.866;2024-01-06T07:00:02;7.09;82.68
68556;HTU21D;55544;51.032;5.866;2024-01-06T07:02:28;7.05;82.98
68556;HTU21D;55544;51.032;5.866;2024-01-06T07:04:53;7.02;83.00
68556;HTU21D;55544;51.032;5.866;2024-01-06T07:07:19;7.08;82.90
68556;HTU21D;55544;51.032;5.866;2024-01-06T07:09:45;7.11;82.84
68556;HTU21D;55544;51.032;5.866;2024-01-06T07:12:10;7.11;82.41
68556;HTU21D;55544;51.032;5.866;2024-01-06T07:14:36;7.16;82.58
68556;HTU21D;55544;51.032;5.866;2024-01-06T07:17:04;7.13;82.34
68556;HTU21D;55544;51.032;5.866;2024-01-06T07:19:32;7.14;82.04
68556;HTU21D;55544;51.032;5.866;2024-01-06T07:21:57;7.15;81.59
68556;HTU21D;55544;51.032;5.866;2024-01-06T07:24:23;7.16;81.55
68556;HTU21D;55544;51.032;5.866;2024-01-06T07:26:49;7.16;81.42
68556;HTU21D;55544;51.032;5.866;2024-01-06T07:29:14;7.11;81.11
68556;HTU21D;55544;51.032;5.866;2024-01-06T07:31:40;7.11;81.06
68556;HTU21D;55544;51.032;5.866;2024-01-06T07:34:06;7.09;81.10
68556;HTU21D;55544;51.032;5.866;2024-01-06T07:36:32;7.08;81.45
68556;HTU21D;55544;51.032;5.866;2024-01-06T07:38:57;7.07;81.09
68556;HTU21D;55544;51.032;5.866;2024-01-06T07:41:23;7.10;81.14
68556;HTU21D;55544;51.032;5.866;2024-01-06T07:43:49;7.11;80.99
68556;HTU21D;55544;51.032;5.866;2024-01-06T07:46:15;7.08;80.64
68556;HTU21D;55544;51.032;5.866;2024-01-06T07:48:41;7.09;80.72
68556;HTU21D;55544;51.032;5.866;2024-01-06T07:51:06;7.09;80.80
68556;HTU21D;55544;51.032;5.866;2024-01-06T07:53:32;7.11;80.99
68556;HTU21D;55544;51.032;5.866;2024-01-06T07:55:58;7.09;80.96
68556;HTU21D;55544;51.032;5.866;2024-01-06T07:58:24;7.14;80.98
68556;HTU21D;55544;51.032;5.866;2024-01-06T08:00:51;7.19;80.52
68556;HTU21D;55544;51.032;5.866;2024-01-06T08:03:16;7.16;81.11
68556;HTU21D;55544;51.032;5.866;2024-01-06T08:05:42;7.19;80.94
68556;HTU21D;55544;51.032;5.866;2024-01-06T08:08:08;7.15;80.55
68556;HTU21D;55544;51.032;5.866;2024-01-06T08:10:34;7.12;80.69
68556;HTU21D;55544;51.032;5.866;2024-01-06T08:12:59;7.10;81.06
68556;HTU21D;55544;51.032;5.866;2024-01-06T08:15:25;7.13;81.07
68556;HTU21D;55544;51.032;5.866;2024-01-06T08:17:51;7.16;81.07
68556;HTU21D;55544;51.032;5.866;2024-01-06T08:20:17;7.19;80.48
68556;HTU21D;55544;51.032;5.866;2024-01-06T08:22:42;7.15;80.14
68556;HTU21D;55544;51.032;5.866;2024-01-06T08:25:08;7.19;80.59
68556;HTU21D;55544;51.032;5.866;2024-01-06T08:27:34;7.18;80.94
68556;HTU21D;55544;51.032;5.866;2024-01-06T08:30:01;7.17;80.66
68556;HTU21D;55544;51.032;5.866;2024-01-06T08:32:26;7.17;80.98
68556;HTU21D;55544;51.032;5.866;2024-01-06T08:34:52;7.16;80.74
68556;HTU21D;55544;51.032;5.866;2024-01-06T08:37:18;7.17;80.96
68556;HTU21D;55544;51.032;5.866;2024-01-06T08:39:43;7.14;80.53
68556;HTU21D;55544;51.032;5.866;2024-01-06T08:42:09;7.11;80.59
68556;HTU21D;55544;51.032;5.866;2024-01-06T08:44:35;7.07;80.78
68556;HTU21D;55544;51.032;5.866;2024-01-06T08:47:00;7.03;80.29
68556;HTU21D;55544;51.032;5.866;2024-01-06T08:49:26;7.04;80.87
68556;HTU21D;55544;51.032;5.866;2024-01-06T08:51:52;7.04;80.85
68556;HTU21D;55544;51.032;5.866;2024-01-06T08:54:17;7.03;81.05
68556;HTU21D;55544;51.032;5.866;2024-01-06T08:56:43;7.03;80.59
68556;HTU21D;55544;51.032;5.866;2024-01-06T08:59:09;7.00;80.86
68556;HTU21D;55544;51.032;5.866;2024-01-06T09:01:34;6.96;80.72
68556;HTU21D;55544;51.032;5.866;2024-01-06T09:04:02;6.93;80.50
68556;HTU21D;55544;51.032;5.866;2024-01-06T09:06:28;6.91;80.69
68556;HTU21D;55544;51.032;5.866;2024-01-06T09:08:53;6.85;80.42
68556;HTU21D;55544;51.032;5.866;2024-01-06T09:11:19;6.87;80.45
68556;HTU21D;55544;51.032;5.866;2024-01-06T09:13:45;6.97;80.65
68556;HTU21D;55544;51.032;5.866;2024-01-06T09:16:11;7.00;80.27
68556;HTU21D;55544;51.032;5.866;2024-01-06T09:18:36;7.00;79.71
68556;HTU21D;55544;51.032;5.866;2024-01-06T09:21:02;7.00;79.95
68556;HTU21D;55544;51.032;5.866;2024-01-06T09:23:28;6.98;79.94
68556;HTU21D;55544;51.032;5.866;2024-01-06T09:25:54;6.94;80.10
68556;HTU21D;55544;51.032;5.866;2024-01-06T09:28:20;6.96;80.30
68556;HTU21D;55544;51.032;5.866;2024-01-06T09:30:49;7.01;79.99
68556;HTU21D;55544;51.032;5.866;2024-01-06T09:33:16;7.01;80.31
68556;HTU21D;55544;51.032;5.866;2024-01-06T09:35:43;7.02;80.01
68556;HTU21D;55544;51.032;5.866;2024-01-06T09:38:10;7.04;79.99
68556;HTU21D;55544;51.032;5.866;2024-01-06T09:40:41;7.05;79.70
68556;HTU21D;55544;51.032;5.866;2024-01-06T09:43:08;7.04;80.09
68556;HTU21D;55544;51.032;5.866;2024-01-06T09:45:33;7.01;80.36
68556;HTU21D;55544;51.032;5.866;2024-01-06T09:48:12;7.03;80.46
68556;HTU21D;55544;51.032;5.866;2024-01-06T09:50:42;7.04;80.62
68556;HTU21D;55544;51.032;5.866;2024-01-06T09:53:13;7.05;80.67
68556;HTU21D;55544;51.032;5.866;2024-01-06T09:55:39;7.04;80.51
68556;HTU21D;55544;51.032;5.866;2024-01-06T09:58:05;6.99;80.91
68556;HTU21D;55544;51.032;5.866;2024-01-06T10:00:35;6.97;80.65
68556;HTU21D;55544;51.032;5.866;2024-01-06T10:03:01;6.97;80.92
68556;HTU21D;55544;51.032;5.866;2024-01-06T10:05:27;7.01;81.16
68556;HTU21D;55544;51.032;5.866;2024-01-06T10:07:53;7.03;80.61
68556;HTU21D;55544;51.032;5.866;2024-01-06T10:10:18;7.03;80.52
68556;HTU21D;55544;51.032;5.866;2024-01-06T10:12:45;7.05;81.04
68556;HTU21D;55544;51.032;5.866;2024-01-06T10:15:11;7.07;80.94
68556;HTU21D;55544;51.032;5.866;2024-01-06T10:17:41;7.10;81.36
68556;HTU21D;55544;51.032;5.866;2024-01-06T10:20:12;7.13;81.44
68556;HTU21D;55544;51.032;5.866;2024-01-06T10:22:40;7.11;81.54
68556;HTU21D;55544;51.032;5.866;2024-01-06T10:25:08;7.10;81.59
68556;HTU21D;55544;51.032;5.866;2024-01-06T10:27:35;7.11;81.84
68556;HTU21D;55544;51.032;5.866;2024-01-06T10:30:01;7.09;82.04
68556;HTU21D;55544;51.032;5.866;2024-01-06T10:32:30;7.15;81.88
68556;HTU21D;55544;51.032;5.866;2024-01-06T10:34:56;7.20;81.62
68556;HTU21D;55544;51.032;5.866;2024-01-06T10:37:23;7.18;81.36
68556;HTU21D;55544;51.032;5.866;2024-01-06T10:40:16;7.25;81.07
68556;HTU21D;55544;51.032;5.866;2024-01-06T10:42:43;7.27;80.46
68556;HTU21D;55544;51.032;5.866;2024-01-06T10:45:13;7.24;80.50
68556;HTU21D;55544;51.032;5.866;2024-01-06T10:47:42;7.19;80.71
68556;HTU21D;55544;51.032;5.866;2024-01-06T10:50:08;7.20;80.96
68556;HTU21D;55544;51.032;5.866;2024-01-06T10:52:35;7.17;81.69
68556;HTU21D;55544;51.032;5.866;2024-01-06T10:55:04;7.14;81.29
68556;HTU21D;55544;51.032;5.866;2024-01-06T10:57:31;7.16;81.37
68556;HTU21D;55544;51.032;5.866;2024-01-06T10:59:58;7.18;81.75
68556;HTU21D;55544;51.032;5.866;2024-01-06T11:02:26;7.14;81.69
68556;HTU21D;55544;51.032;5.866;2024-01-06T11:04:52;7.15;81.72
68556;HTU21D;55544;51.032;5.866;2024-01-06T11:07:20;7.13;81.20
68556;HTU21D;55544;51.032;5.866;2024-01-06T11:09:57;7.08;81.71
68556;HTU21D;55544;51.032;5.866;2024-01-06T11:12:24;7.09;81.36
68556;HTU21D;55544;51.032;5.866;2024-01-06T11:14:52;7.16;81.74
68556;HTU21D;55544;51.032;5.866;2024-01-06T11:17:55;7.22;81.75
68556;HTU21D;55544;51.032;5.866;2024-01-06T11:20:25;7.23;81.73
68556;HTU21D;55544;51.032;5.866;2024-01-06T11:22:52;7.25;82.23
68556;HTU21D;55544;51.032;5.866;2024-01-06T11:25:21;7.31;81.91
68556;HTU21D;55544;51.032;5.866;2024-01-06T11:27:49;7.26;81.85
68556;HTU21D;55544;51.032;5.866;2024-01-06T11:30:21;7.24;81.96
68556;HTU21D;55544;51.032;5.866;2024-01-06T11:32:51;7.27;81.89
68556;HTU21D;55544;51.032;5.866;2024-01-06T11:35:20;7.24;81.75
68556;HTU21D;55544;51.032;5.866;2024-01-06T11:43:01;7.11;81.57
68556;HTU21D;55544;51.032;5.866;2024-01-06T11:45:29;7.07;81.51
68556;HTU21D;55544;51.032;5.866;2024-01-06T11:47:57;7.04;81.36
68556;HTU21D;55544;51.032;5.866;2024-01-06T11:50:25;7.09;81.40
68556;HTU21D;55544;51.032;5.866;2024-01-06T11:52:52;7.08;81.16
68556;HTU21D;55544;51.032;5.866;2024-01-06T11:55:19;7.10;80.91
68556;HTU21D;55544;51.032;5.866;2024-01-06T11:57:45;7.03;81.20
68556;HTU21D;55544;51.032;5.866;2024-01-06T12:00:11;7.01;81.12
68556;HTU21D;55544;51.032;5.866;2024-01-06T12:02:40;6.99;80.65
68556;HTU21D;55544;51.032;5.866;2024-01-06T12:05:10;6.99;80.94
68556;HTU21D;55544;51.032;5.866;2024-01-06T12:07:37;7.03;81.05
68556;HTU21D;55544;51.032;5.866;2024-01-06T12:10:03;7.02;80.85
68556;HTU21D;55544;51.032;5.866;2024-01-06T12:12:29;6.99;81.20
68556;HTU21D;55544;51.032;5.866;2024-01-06T12:14:55;7.00;80.94
68556;HTU21D;55544;51.032;5.866;2024-01-06T12:17:21;6.99;81.34
68556;HTU21D;55544;51.032;5.866;2024-01-06T12:19:48;6.98;81.55
68556;HTU21D;55544;51.032;5.866;2024-01-06T12:22:15;6.91;81.55
68556;HTU21D;55544;51.032;5.866;2024-01-06T12:24:41;6.94;81.56
68556;HTU21D;55544;51.032;5.866;2024-01-06T12:27:09;6.94;81.96
68556;HTU21D;55544;51.032;5.866;2024-01-06T12:29:40;6.93;81.50
68556;HTU21D;55544;51.032;5.866;2024-01-06T12:32:06;6.91;81.65
68556;HTU21D;55544;51.032;5.866;2024-01-06T12:34:33;6.93;81.50
68556;HTU21D;55544;51.032;5.866;2024-01-06T12:37:00;6.91;81.59
68556;HTU21D;55544;51.032;5.866;2024-01-06T12:39:28;6.90;81.78
68556;HTU21D;55544;51.032;5.866;2024-01-06T12:41:55;6.91;81.73
68556;HTU21D;55544;51.032;5.866;2024-01-06T12:44:21;6.90;81.68
68556;HTU21D;55544;51.032;5.866;2024-01-06T12:46:47;6.82;81.72
68556;HTU21D;55544;51.032;5.866;2024-01-06T12:49:13;6.72;81.96
68556;HTU21D;55544;51.032;5.866;2024-01-06T12:51:39;6.73;82.24
68556;HTU21D;55544;51.032;5.866;2024-01-06T12:54:05;6.74;81.91
68556;HTU21D;55544;51.032;5.866;2024-01-06T12:56:31;6.69;82.01
68556;HTU21D;55544;51.032;5.866;2024-01-06T12:58:57;6.71;82.28
68556;HTU21D;55544;51.032;5.866;2024-01-06T13:01:23;6.71;81.82
68556;HTU21D;55544;51.032;5.866;2024-01-06T13:03:49;6.73;81.39
68556;HTU21D;55544;51.032;5.866;2024-01-06T13:06:14;6.73;81.07
68556;HTU21D;55544;51.032;5.866;2024-01-06T13:08:42;6.64;81.00
68556;HTU21D;55544;51.032;5.866;2024-01-06T13:11:08;6.66;81.11
68556;HTU21D;55544;51.032;5.866;2024-01-06T13:13:34;6.65;80.93
68556;HTU21D;55544;51.032;5.866;2024-01-06T13:16:01;6.65;80.91
68556;HTU21D;55544;51.032;5.866;2024-01-06T13:18:30;6.67;80.52
68556;HTU21D;55544;51.032;5.866;2024-01-06T13:20:56;6.57;80.85
68556;HTU21D;55544;51.032;5.866;2024-01-06T13:23:22;6.57;80.50
68556;HTU21D;55544;51.032;5.866;2024-01-06T13:25:48;6.66;80.36
68556;HTU21D;55544;51.032;5.866;2024-01-06T13:28:14;6.63;80.39
68556;HTU21D;55544;51.032;5.866;2024-01-06T13:30:40;6.66;80.13
68556;HTU21D;55544;51.032;5.866;2024-01-06T13:33:07;6.65;80.42
68556;HTU21D;55544;51.032;5.866;2024-01-06T13:35:35;6.65;79.82
68556;HTU21D;55544;51.032;5.866;2024-01-06T13:38:03;6.65;79.83
68556;HTU21D;55544;51.032;5.866;2024-01-06T13:40:30;6.66;79.79
68556;HTU21D;55544;51.032;5.866;2024-01-06T13:42:56;6.64;79.82
68556;HTU21D;55544;51.032;5.866;2024-01-06T13:45:22;6.68;79.66
68556;HTU21D;55544;51.032;5.866;2024-01-06T13:47:47;6.73;79.72
68556;HTU21D;55544;51.032;5.866;2024-01-06T13:50:16;6.81;79.68
68556;HTU21D;55544;51.032;5.866;2024-01-06T13:52:43;6.81;79.44
68556;HTU21D;55544;51.032;5.866;2024-01-06T13:55:11;6.81;79.61
68556;HTU21D;55544;51.032;5.866;2024-01-06T13:57:37;6.84;79.20
68556;HTU21D;55544;51.032;5.866;2024-01-06T14:00:10;6.79;79.08
68556;HTU21D;55544;51.032;5.866;2024-01-06T14:02:40;6.72;79.09
68556;HTU21D;55544;51.032;5.866;2024-01-06T14:05:06;6.69;79.16
68556;HTU21D;55544;51.032;5.866;2024-01-06T14:07:35;6.73;79.12
68556;HTU21D;55544;51.032;5.866;2024-01-06T14:10:01;6.72;78.94
68556;HTU21D;55544;51.032;5.866;2024-01-06T14:12:29;6.71;78.77
68556;HTU21D;55544;51.032;5.866;2024-01-06T14:14:56;6.73;79.73
68556;HTU21D;55544;51.032;5.866;2024-01-06T14:17:21;6.73;78.90
68556;HTU21D;55544;51.032;5.866;2024-01-06T14:19:47;6.72;78.86
68556;HTU21D;55544;51.032;5.866;2024-01-06T14:22:13;6.66;78.47
68556;HTU21D;55544;51.032;5.866;2024-01-06T14:24:40;6.57;78.97
68556;HTU21D;55544;51.032;5.866;2024-01-06T14:27:06;6.53;79.16
68556;HTU21D;55544;51.032;5.866;2024-01-06T14:29:31;6.54;79.49
68556;HTU21D;55544;51.032;5.866;2024-01-06T14:31:57;6.53;79.65
68556;HTU21D;55544;51.032;5.866;2024-01-06T14:34:23;6.58;79.59
68556;HTU21D;55544;51.032;5.866;2024-01-06T14:36:50;6.60;79.24
68556;HTU21D;55544;51.032;5.866;2024-01-06T14:39:16;6.57;79.29
68556;HTU21D;55544;51.032;5.866;2024-01-06T14:41:42;6.55;79.59
68556;HTU21D;55544;51.032;5.866;2024-01-06T14:44:08;6.54;79.43
68556;HTU21D;55544;51.032;5.866;2024-01-06T14:46:34;6.50;79.11
68556;HTU21D;55544;51.032;5.866;2024-01-06T14:49:01;6.44;79.08
68556;HTU21D;55544;51.032;5.866;2024-01-06T14:51:28;6.40;79.36
68556;HTU21D;55544;51.032;5.866;2024-01-06T14:53:54;6.39;79.04
68556;HTU21D;55544;51.032;5.866;2024-01-06T14:56:21;6.39;79.08
68556;HTU21D;55544;51.032;5.866;2024-01-06T14:58:47;6.40;79.33
68556;HTU21D;55544;51.032;5.866;2024-01-06T15:01:13;6.48;78.82
68556;HTU21D;55544;51.032;5.866;2024-01-06T15:03:38;6.44;79.21
68556;HTU21D;55544;51.032;5.866;2024-01-06T15:06:04;6.40;78.84
68556;HTU21D;55544;51.032;5.866;2024-01-06T15:08:30;6.38;79.50
68556;HTU21D;55544;51.032;5.866;2024-01-06T15:10:56;6.34;79.07
68556;HTU21D;55544;51.032;5.866;2024-01-06T15:13:22;6.28;78.86
68556;HTU21D;55544;51.032;5.866;2024-01-06T15:15:47;6.25;78.99
68556;HTU21D;55544;51.032;5.866;2024-01-06T15:18:17;6.26;78.93
68556;HTU21D;55544;51.032;5.866;2024-01-06T15:20:48;6.29;79.39
68556;HTU21D;55544;51.032;5.866;2024-01-06T15:23:14;6.29;78.93
68556;HTU21D;55544;51.032;5.866;2024-01-06T15:25:40;6.22;78.71
68556;HTU21D;55544;51.032;5.866;2024-01-06T15:28:09;6.19;79.53
68556;HTU21D;55544;51.032;5.866;2024-01-06T15:30:35;6.20;79.35